Time;durP1;ratioP1;P1;durP2;ratioP2;P2;SDS_P1;SDS_P2;PMS_P1;PMS_P2;Temp;Humidity;BMP_temperature;BMP_pressure;BME280_temperature;BME280_humidity;BME280_pressure;Samples;Min_cycle;Max_cycle;Signal;HPM_P1;HPM_P2
2022/02/21 00:01:59;;;;;;;67.25;46.20;;;;;;;;;;4965504;28;20387;-45
2022/02/21 00:04:25;;;;;;;71.22;45.70;;;;;;;;;;4965208;28;20445;-46
2022/02/21 00:06:51;;;;;;;66.72;44.65;;;;;;;;;;4965408;28;20034;-46
2022/02/21 00:09:17;;;;;;;67.45;44.45;;;;;;;;;;4965058;28;20512;-49
2022/02/21 00:11:43;;;;;;;63.90;43.83;;;;;;;;;;4965861;28;20122;-51
2022/02/21 00:14:09;;;;;;;61.58;42.38;;;;;;;;;;4968787;28;20027;-52
2022/02/21 00:16:35;;;;;;;65.75;42.83;;;;;;;;;;4968684;28;20026;-45
2022/02/21 00:19:01;;;;;;;62.22;42.15;;;;;;;;;;4968705;28;20035;-44
2022/02/21 00:21:29;;;;;;;65.43;43.88;;;;;;;;;;4968874;28;20390;-45
2022/02/21 00:23:55;;;;;;;66.00;41.08;;;;;;;;;;4968780;28;20026;-44
2022/02/21 00:26:21;;;;;;;64.40;44.17;;;;;;;;;;4968445;28;20503;-44
2022/02/21 00:28:48;;;;;;;60.13;41.00;;;;;;;;;;4968815;28;20045;-44
2022/02/21 00:31:17;;;;;;;62.97;41.65;;;;;;;;;;4968591;28;20022;-44
2022/02/21 00:33:43;;;;;;;60.05;39.38;;;;;;;;;;4968588;28;20038;-45
2022/02/21 00:36:09;;;;;;;60.42;39.47;;;;;;;;;;4968148;28;20054;-45
2022/02/21 00:38:35;;;;;;;60.45;38.67;;;;;;;;;;4968346;28;20376;-46
2022/02/21 00:41:04;;;;;;;58.33;38.10;;;;;;;;;;4968176;28;20045;-45
2022/02/21 00:43:32;;;;;;;58.30;37.85;;;;;;;;;;4968463;28;20050;-45
2022/02/21 00:45:59;;;;;;;54.25;36.13;;;;;;;;;;4968149;28;20030;-45
2022/02/21 00:48:25;;;;;;;55.55;37.17;;;;;;;;;;4967973;28;20364;-45
2022/02/21 00:50:51;;;;;;;59.00;37.35;;;;;;;;;;4967986;28;20041;-45
2022/02/21 00:53:17;;;;;;;58.88;37.58;;;;;;;;;;4967837;28;20058;-47
2022/02/21 00:55:43;;;;;;;60.90;38.17;;;;;;;;;;4968362;28;20064;-45
2022/02/21 00:58:09;;;;;;;54.85;35.58;;;;;;;;;;4976116;28;20023;-46
2022/02/21 01:00:37;;;;;;;57.50;37.78;;;;;;;;;;4977084;28;20056;-45
2022/02/21 01:03:03;;;;;;;57.85;38.13;;;;;;;;;;4976969;28;20031;-46
2022/02/21 01:05:29;;;;;;;56.55;37.08;;;;;;;;;;4977170;28;20081;-46
2022/02/21 01:07:55;;;;;;;57.80;38.67;;;;;;;;;;4976933;28;20066;-46
2022/02/21 01:10:21;;;;;;;62.65;39.80;;;;;;;;;;4976662;28;20376;-45
2022/02/21 01:12:47;;;;;;;59.53;38.58;;;;;;;;;;4977243;28;20033;-46
2022/02/21 01:15:14;;;;;;;57.53;37.72;;;;;;;;;;4976824;28;20050;-46
2022/02/21 01:17:44;;;;;;;60.30;37.90;;;;;;;;;;4976625;28;20142;-46
2022/02/21 01:20:13;;;;;;;56.80;38.00;;;;;;;;;;4976885;28;20039;-46
2022/02/21 01:22:39;;;;;;;59.17;38.10;;;;;;;;;;4976468;28;20030;-45
2022/02/21 01:25:06;;;;;;;58.47;36.58;;;;;;;;;;4976561;28;20375;-46
2022/02/21 01:27:32;;;;;;;61.90;40.03;;;;;;;;;;4976955;28;20023;-46
2022/02/21 01:29:58;;;;;;;60.45;37.53;;;;;;;;;;4976462;28;20049;-45
2022/02/21 01:32:24;;;;;;;59.88;38.65;;;;;;;;;;4976859;28;20308;-45
2022/02/21 01:34:50;;;;;;;62.58;38.08;;;;;;;;;;4976786;28;20375;-45
2022/02/21 01:37:16;;;;;;;61.42;37.65;;;;;;;;;;4995839;28;20066;-45
2022/02/21 01:39:44;;;;;;;58.90;37.30;;;;;;;;;;4995723;28;20101;-46
2022/02/21 01:42:11;;;;;;;54.92;36.40;;;;;;;;;;4995659;28;20055;-45
2022/02/21 01:44:37;;;;;;;57.40;36.53;;;;;;;;;;4995802;28;20022;-45
2022/02/21 01:47:03;;;;;;;63.58;37.25;;;;;;;;;;4995831;28;20029;-45
2022/02/21 01:49:30;;;;;;;60.53;37.90;;;;;;;;;;4995911;28;20511;-46
2022/02/21 01:51:58;;;;;;;61.38;39.90;;;;;;;;;;4995675;28;20057;-45
2022/02/21 01:54:26;;;;;;;61.38;37.92;;;;;;;;;;4995394;28;20029;-45
2022/02/21 01:56:53;;;;;;;64.22;39.30;;;;;;;;;;4995541;28;20514;-44
2022/02/21 01:59:19;;;;;;;68.78;41.10;;;;;;;;;;4995440;28;20096;-45
2022/02/21 02:01:46;;;;;;;67.70;42.33;;;;;;;;;;4995357;28;20033;-45
2022/02/21 02:04:12;;;;;;;72.95;42.95;;;;;;;;;;4995473;28;20046;-45
2022/02/21 02:06:38;;;;;;;73.57;41.00;;;;;;;;;;4995349;28;20033;-45
2022/02/21 02:09:04;;;;;;;72.85;40.80;;;;;;;;;;4995199;28;20113;-45
2022/02/21 02:11:36;;;;;;;68.22;40.25;;;;;;;;;;4995088;28;20027;-45
2022/02/21 02:14:02;;;;;;;68.65;41.38;;;;;;;;;;4994975;28;20515;-45
2022/02/21 02:16:30;;;;;;;72.60;40.17;;;;;;;;;;4994917;28;20027;-45
2022/02/21 02:18:57;;;;;;;69.65;40.10;;;;;;;;;;4995369;28;20507;-45
2022/02/21 02:21:26;;;;;;;63.45;37.65;;;;;;;;;;4995152;28;20374;-44
2022/02/21 02:23:53;;;;;;;71.00;40.63;;;;;;;;;;4995011;28;20062;-46
2022/02/21 02:26:20;;;;;;;71.47;41.35;;;;;;;;;;4994844;28;20030;-45
2022/02/21 02:28:49;;;;;;;70.60;39.45;;;;;;;;;;4994711;28;20037;-45
2022/02/21 02:31:15;;;;;;;69.05;40.85;;;;;;;;;;4994641;28;20519;-44
2022/02/21 02:33:41;;;;;;;64.38;38.60;;;;;;;;;;4994627;28;20042;-45
2022/02/21 02:36:08;;;;;;;61.25;37.72;;;;;;;;;;4993936;28;20490;-45
2022/02/21 02:38:37;;;;;;;64.90;39.38;;;;;;;;;;4994564;28;20034;-44
2022/02/21 02:41:05;;;;;;;69.93;39.60;;;;;;;;;;4994637;28;20032;-44
2022/02/21 02:43:31;;;;;;;68.78;40.08;;;;;;;;;;4994505;28;20101;-44
2022/02/21 02:45:57;;;;;;;60.95;37.15;;;;;;;;;;4994418;28;20549;-46
2022/02/21 02:48:23;;;;;;;61.35;38.00;;;;;;;;;;4994350;28;20157;-46
2022/02/21 02:50:49;;;;;;;63.60;39.15;;;;;;;;;;4994823;28;20030;-46
2022/02/21 02:53:16;;;;;;;60.72;37.25;;;;;;;;;;4994484;28;20032;-45
2022/02/21 02:55:42;;;;;;;61.22;35.30;;;;;;;;;;4994451;28;20037;-45
2022/02/21 02:58:08;;;;;;;58.90;35.17;;;;;;;;;;4994626;28;20554;-46
2022/02/21 03:00:34;;;;;;;63.22;36.13;;;;;;;;;;4994212;28;20145;-46
2022/02/21 03:03:00;;;;;;;60.45;37.10;;;;;;;;;;4994290;28;20030;-46
2022/02/21 03:05:26;;;;;;;57.50;34.90;;;;;;;;;;4977110;28;20520;-45
2022/02/21 03:07:55;;;;;;;59.42;37.13;;;;;;;;;;4994165;28;20084;-45
2022/02/21 03:10:21;;;;;;;65.43;36.25;;;;;;;;;;4994097;28;20117;-45
2022/02/21 03:12:47;;;;;;;65.65;38.78;;;;;;;;;;4994238;28;20101;-45
2022/02/21 03:15:13;;;;;;;66.63;39.15;;;;;;;;;;4994217;28;20073;-45
2022/02/21 03:17:39;;;;;;;60.58;36.00;;;;;;;;;;4994231;28;20093;-46
2022/02/21 03:20:08;;;;;;;57.97;34.50;;;;;;;;;;4994129;28;20031;-46
2022/02/21 03:22:36;;;;;;;63.80;37.72;;;;;;;;;;4994062;28;20557;-46
2022/02/21 03:25:02;;;;;;;64.55;36.25;;;;;;;;;;4994073;28;20510;-46
2022/02/21 03:27:28;;;;;;;59.13;36.67;;;;;;;;;;4994001;28;20089;-45
2022/02/21 03:29:54;;;;;;;59.85;33.90;;;;;;;;;;4993788;28;20562;-46
2022/02/21 03:32:20;;;;;;;55.97;35.65;;;;;;;;;;4994003;28;20427;-46
2022/02/21 03:34:47;;;;;;;54.22;33.13;;;;;;;;;;4994136;28;20035;-45
2022/02/21 03:37:14;;;;;;;55.10;34.65;;;;;;;;;;4994049;28;20467;-45
2022/02/21 03:39:40;;;;;;;54.97;32.92;;;;;;;;;;4993779;28;20054;-45
2022/02/21 03:42:06;;;;;;;52.97;33.35;;;;;;;;;;4993820;28;20026;-47
2022/02/21 03:44:32;;;;;;;55.05;33.33;;;;;;;;;;4993791;28;20081;-46
2022/02/21 03:46:58;;;;;;;54.92;33.38;;;;;;;;;;4996682;28;20088;-47
2022/02/21 03:49:24;;;;;;;52.38;33.67;;;;;;;;;;4997757;28;20065;-47
2022/02/21 03:51:51;;;;;;;57.50;33.35;;;;;;;;;;4997959;28;20029;-47
2022/02/21 03:54:17;;;;;;;57.00;34.80;;;;;;;;;;4997846;28;20394;-46
2022/02/21 03:56:43;;;;;;;56.67;36.15;;;;;;;;;;4997663;28;20018;-46
2022/02/21 03:59:09;;;;;;;63.65;39.40;;;;;;;;;;4980200;28;20559;-47
2022/02/21 04:01:35;;;;;;;56.10;35.00;;;;;;;;;;4997510;28;20026;-46
2022/02/21 04:04:01;;;;;;;60.10;38.30;;;;;;;;;;4997730;28;20398;-46
2022/02/21 04:06:27;;;;;;;66.30;37.55;;;;;;;;;;4997627;28;20030;-46
2022/02/21 04:08:57;;;;;;;57.75;36.00;;;;;;;;;;4997477;28;20029;-45
2022/02/21 04:11:26;;;;;;;52.33;31.10;;;;;;;;;;4997457;28;20509;-46
2022/02/21 04:13:52;;;;;;;50.58;33.60;;;;;;;;;;4997411;28;20474;-46
2022/02/21 04:16:20;;;;;;;56.25;35.90;;;;;;;;;;4997292;28;20052;-46
2022/02/21 04:18:46;;;;;;;51.08;31.88;;;;;;;;;;4997288;28;20019;-45
2022/02/21 04:21:12;;;;;;;55.90;35.42;;;;;;;;;;4997369;28;20026;-45
2022/02/21 04:23:38;;;;;;;52.67;33.08;;;;;;;;;;4997342;28;20024;-45
2022/02/21 04:26:04;;;;;;;49.92;31.88;;;;;;;;;;4997002;28;20033;-46
2022/02/21 04:28:30;;;;;;;59.00;34.60;;;;;;;;;;4997090;28;20030;-46
2022/02/21 04:30:56;;;;;;;49.08;33.38;;;;;;;;;;4996962;28;20030;-46
2022/02/21 04:33:22;;;;;;;58.05;34.15;;;;;;;;;;4997001;28;20027;-46
2022/02/21 04:35:48;;;;;;;56.45;33.45;;;;;;;;;;4996820;28;20058;-45
2022/02/21 04:38:17;;;;;;;64.05;39.10;;;;;;;;;;4996952;28;20505;-46
2022/02/21 04:40:43;;;;;;;61.03;36.42;;;;;;;;;;4996849;28;20449;-46
2022/02/21 04:43:09;;;;;;;50.15;32.45;;;;;;;;;;4996967;28;20403;-46
2022/02/21 04:45:35;;;;;;;54.67;34.28;;;;;;;;;;4996737;28;20381;-45
2022/02/21 04:48:01;;;;;;;55.78;34.58;;;;;;;;;;4996708;28;20030;-45
2022/02/21 04:50:33;;;;;;;51.58;32.33;;;;;;;;;;4996549;28;20450;-46
2022/02/21 04:52:59;;;;;;;57.00;34.85;;;;;;;;;;4979879;28;20024;-45
2022/02/21 04:55:25;;;;;;;53.08;33.33;;;;;;;;;;4996509;28;20077;-45
2022/02/21 04:57:51;;;;;;;76.85;42.47;;;;;;;;;;4995907;28;20033;-45
2022/02/21 05:00:17;;;;;;;55.85;33.50;;;;;;;;;;4996582;28;20467;-46
2022/02/21 05:02:44;;;;;;;78.13;46.90;;;;;;;;;;4996609;28;20425;-46
2022/02/21 05:05:16;;;;;;;77.63;46.28;;;;;;;;;;4996673;28;20053;-45
2022/02/21 05:07:43;;;;;;;73.32;45.53;;;;;;;;;;4996544;28;20439;-46
2022/02/21 05:10:09;;;;;;;61.30;37.60;;;;;;;;;;4996379;28;20041;-46
2022/02/21 05:12:36;;;;;;;65.53;38.78;;;;;;;;;;4996260;28;20019;-46
2022/02/21 05:15:03;;;;;;;84.82;47.17;;;;;;;;;;4996147;28;20026;-47
2022/02/21 05:17:32;;;;;;;76.20;45.63;;;;;;;;;;4996371;28;20026;-47
2022/02/21 05:20:00;;;;;;;81.07;46.72;;;;;;;;;;4996275;28;20019;-46
2022/02/21 05:22:26;;;;;;;76.70;46.25;;;;;;;;;;4996200;28;20102;-47
2022/02/21 05:24:52;;;;;;;75.53;43.45;;;;;;;;;;4996004;28;20022;-46
2022/02/21 05:27:19;;;;;;;82.93;47.42;;;;;;;;;;4995801;28;20053;-46
2022/02/21 05:29:45;;;;;;;78.20;43.75;;;;;;;;;;4995687;28;20030;-46
2022/02/21 05:32:15;;;;;;;69.85;41.70;;;;;;;;;;4995906;28;20037;-46
2022/02/21 05:34:42;;;;;;;77.50;43.10;;;;;;;;;;4995899;28;20038;-46
2022/02/21 05:37:08;;;;;;;85.60;53.95;;;;;;;;;;4995621;28;20518;-46
2022/02/21 05:39:34;;;;;;;81.00;51.92;;;;;;;;;;4995860;28;20041;-45
2022/02/21 05:42:00;;;;;;;82.93;48.63;;;;;;;;;;4995573;28;20463;-45
2022/02/21 05:44:27;;;;;;;75.68;42.83;;;;;;;;;;4995771;28;20026;-44
2022/02/21 05:46:53;;;;;;;67.80;40.70;;;;;;;;;;4978150;28;20498;-44
2022/02/21 05:49:19;;;;;;;66.50;40.13;;;;;;;;;;4995362;28;20031;-44
2022/02/21 05:51:45;;;;;;;63.67;39.20;;;;;;;;;;4995574;28;20033;-44
2022/02/21 05:54:11;;;;;;;89.47;47.53;;;;;;;;;;4996103;28;20490;-44
2022/02/21 05:56:37;;;;;;;104.85;50.65;;;;;;;;;;4996581;28;20041;-46
2022/02/21 05:59:03;;;;;;;68.03;41.50;;;;;;;;;;5016734;28;20022;-44
2022/02/21 06:01:29;;;;;;;73.97;42.70;;;;;;;;;;5014856;28;20041;-44
2022/02/21 06:03:55;;;;;;;78.13;53.50;;;;;;;;;;5014876;28;20494;-44
2022/02/21 06:06:22;;;;;;;74.68;49.42;;;;;;;;;;5015118;28;20088;-44
2022/02/21 06:08:48;;;;;;;57.75;40.30;;;;;;;;;;5014287;28;20463;-44
2022/02/21 06:11:14;;;;;;;60.65;40.70;;;;;;;;;;5014026;28;20045;-44
2022/02/21 06:13:40;;;;;;;49.63;34.20;;;;;;;;;;5014703;28;20168;-43
2022/02/21 06:16:06;;;;;;;58.28;36.45;;;;;;;;;;5014534;28;20033;-43
2022/02/21 06:18:35;;;;;;;64.90;45.83;;;;;;;;;;4997236;28;20037;-44
2022/02/21 06:21:01;;;;;;;100.38;62.13;;;;;;;;;;5014887;28;20026;-44
2022/02/21 06:23:27;;;;;;;156.70;88.80;;;;;;;;;;5014622;28;20113;-44
2022/02/21 06:25:53;;;;;;;164.75;47.90;;;;;;;;;;5014595;28;20066;-44
2022/02/21 06:28:19;;;;;;;98.57;43.00;;;;;;;;;;5014774;28;20033;-44
2022/02/21 06:30:58;;;;;;;75.55;39.75;;;;;;;;;;5111439;27;20442;-42
2022/02/21 06:33:24;;;;;;;117.18;39.65;;;;;;;;;;5111383;28;20114;-42
2022/02/21 06:35:50;;;;;;;83.72;43.78;;;;;;;;;;5111413;28;20058;-42
2022/02/21 06:38:16;;;;;;;95.65;39.22;;;;;;;;;;5111104;28;20479;-42
2022/02/21 06:40:42;;;;;;;76.13;36.92;;;;;;;;;;5111059;28;20115;-44
2022/02/21 06:43:09;;;;;;;66.05;36.20;;;;;;;;;;5111311;28;20091;-43
2022/02/21 06:45:36;;;;;;;52.92;32.80;;;;;;;;;;5111046;28;20024;-43
2022/02/21 06:48:02;;;;;;;55.03;34.00;;;;;;;;;;5111039;28;20024;-43
2022/02/21 06:50:28;;;;;;;55.83;35.38;;;;;;;;;;5110982;28;20386;-43
2022/02/21 06:52:54;;;;;;;61.78;37.40;;;;;;;;;;5110964;28;20016;-43
2022/02/21 06:55:20;;;;;;;66.65;40.25;;;;;;;;;;5110916;28;20026;-43
2022/02/21 06:57:48;;;;;;;63.50;40.78;;;;;;;;;;5111110;28;20221;-43
2022/02/21 07:00:15;;;;;;;64.93;41.78;;;;;;;;;;5109505;28;20034;-43
2022/02/21 07:02:41;;;;;;;68.25;42.25;;;;;;;;;;5110681;28;20023;-43
2022/02/21 07:05:07;;;;;;;68.05;41.03;;;;;;;;;;5110895;28;20028;-44
2022/02/21 07:07:34;;;;;;;63.20;42.25;;;;;;;;;;5110703;28;20044;-43
2022/02/21 07:10:00;;;;;;;60.72;41.85;;;;;;;;;;5110522;28;20039;-45
2022/02/21 07:12:26;;;;;;;55.35;38.25;;;;;;;;;;5110592;28;20020;-44
2022/02/21 07:14:52;;;;;;;52.17;36.65;;;;;;;;;;5110387;28;20035;-43
2022/02/21 07:17:18;;;;;;;55.35;39.70;;;;;;;;;;5109036;28;20085;-44
2022/02/21 07:19:44;;;;;;;60.00;40.90;;;;;;;;;;5110572;28;20089;-44
2022/02/21 07:22:11;;;;;;;60.75;40.20;;;;;;;;;;5110479;28;20023;-44
2022/02/21 07:24:37;;;;;;;52.35;33.35;;;;;;;;;;5110595;28;20089;-45
2022/02/21 07:27:03;;;;;;;34.08;26.10;;;;;;;;;;5110343;28;20024;-45
2022/02/21 07:29:29;;;;;;;33.22;25.55;;;;;;;;;;5109823;28;20040;-44
2022/02/21 07:31:56;;;;;;;33.58;24.63;;;;;;;;;;5110224;28;20067;-45
2022/02/21 07:34:22;;;;;;;32.97;24.13;;;;;;;;;;5110161;28;20020;-44
2022/02/21 07:36:48;;;;;;;29.20;23.88;;;;;;;;;;5110174;28;20028;-44
2022/02/21 07:39:14;;;;;;;31.27;25.80;;;;;;;;;;5110098;28;20023;-44
2022/02/21 07:41:40;;;;;;;38.17;28.25;;;;;;;;;;5099502;28;20033;-44
2022/02/21 07:44:07;;;;;;;41.63;26.60;;;;;;;;;;5096438;28;20070;-44
2022/02/21 07:46:33;;;;;;;30.77;23.25;;;;;;;;;;5096280;28;20025;-44
2022/02/21 07:49:01;;;;;;;27.42;21.73;;;;;;;;;;5096324;28;20396;-43
2022/02/21 07:51:28;;;;;;;25.80;20.00;;;;;;;;;;5096384;28;20024;-44
2022/02/21 07:53:55;;;;;;;30.13;22.50;;;;;;;;;;5096260;28;20023;-44
2022/02/21 07:56:21;;;;;;;28.88;21.65;;;;;;;;;;5096097;28;20024;-44
2022/02/21 07:58:48;;;;;;;34.88;25.40;;;;;;;;;;5096073;28;20050;-44
2022/02/21 08:01:14;;;;;;;39.10;28.85;;;;;;;;;;5096099;28;20401;-44
2022/02/21 08:03:40;;;;;;;39.05;28.67;;;;;;;;;;5095801;28;20031;-44
2022/02/21 08:06:09;;;;;;;40.45;27.20;;;;;;;;;;5096073;28;20027;-44
2022/02/21 08:08:35;;;;;;;37.40;26.42;;;;;;;;;;5095795;28;20467;-44
2022/02/21 08:11:01;;;;;;;37.65;24.40;;;;;;;;;;5095677;28;20532;-44
2022/02/21 08:13:27;;;;;;;33.08;22.85;;;;;;;;;;5096290;28;20024;-43
2022/02/21 08:15:53;;;;;;;24.75;18.65;;;;;;;;;;5095621;28;20024;-44
2022/02/21 08:18:19;;;;;;;22.45;17.25;;;;;;;;;;5095611;28;20016;-44
2022/02/21 08:20:46;;;;;;;27.65;20.20;;;;;;;;;;5095751;28;20081;-45
2022/02/21 08:23:12;;;;;;;28.60;21.00;;;;;;;;;;5095782;28;20036;-44
2022/02/21 08:25:38;;;;;;;23.80;18.40;;;;;;;;;;5095653;28;20020;-44
2022/02/21 08:28:04;;;;;;;25.58;18.77;;;;;;;;;;5095707;28;20055;-44
2022/02/21 08:30:30;;;;;;;46.50;29.30;;;;;;;;;;5095027;28;20341;-44
2022/02/21 08:32:56;;;;;;;39.72;25.23;;;;;;;;;;5095370;28;20031;-45
2022/02/21 08:35:22;;;;;;;33.58;22.35;;;;;;;;;;5095429;28;20030;-44
2022/02/21 08:37:48;;;;;;;29.02;21.35;;;;;;;;;;5095584;28;20024;-45
2022/02/21 08:40:16;;;;;;;28.33;19.52;;;;;;;;;;5095447;28;20031;-44
2022/02/21 08:42:42;;;;;;;37.88;20.52;;;;;;;;;;5095122;28;20028;-44
2022/02/21 08:45:09;;;;;;;33.03;19.38;;;;;;;;;;5095125;28;20089;-44
2022/02/21 08:47:35;;;;;;;24.55;16.40;;;;;;;;;;5095191;28;20039;-43
2022/02/21 08:50:03;;;;;;;18.50;11.75;;;;;;;;;;5094860;28;20403;-43
2022/02/21 08:52:29;;;;;;;13.85;10.95;;;;;;;;;;5094013;28;20016;-45
2022/02/21 08:54:55;;;;;;;16.85;10.65;;;;;;;;;;5095108;28;20099;-45
2022/02/21 08:57:21;;;;;;;21.20;13.27;;;;;;;;;;5095034;28;20016;-44
2022/02/21 08:59:49;;;;;;;18.15;11.82;;;;;;;;;;5095182;28;20044;-44
2022/02/21 09:02:16;;;;;;;17.23;12.63;;;;;;;;;;5095019;28;20026;-44
2022/02/21 09:04:43;;;;;;;20.60;14.20;;;;;;;;;;5094963;28;20100;-44
2022/02/21 09:07:09;;;;;;;36.65;18.15;;;;;;;;;;5094892;28;20024;-44
2022/02/21 09:09:35;;;;;;;25.50;14.52;;;;;;;;;;5094827;28;20427;-44
2022/02/21 09:12:06;;;;;;;37.40;20.63;;;;;;;;;;5094736;28;20099;-44
2022/02/21 09:14:33;;;;;;;33.53;19.33;;;;;;;;;;5094615;28;20028;-45
2022/02/21 09:16:59;;;;;;;23.92;13.18;;;;;;;;;;5094544;28;20067;-44
2022/02/21 09:19:25;;;;;;;23.55;15.05;;;;;;;;;;5094726;28;20024;-44
2022/02/21 09:21:51;;;;;;;23.00;13.15;;;;;;;;;;5094833;28;20040;-44
2022/02/21 09:24:17;;;;;;;21.83;12.90;;;;;;;;;;5094568;28;20027;-44
2022/02/21 09:26:43;;;;;;;25.50;16.13;;;;;;;;;;5094257;28;20016;-44
2022/02/21 09:29:11;;;;;;;22.90;14.63;;;;;;;;;;5094082;28;20044;-43
2022/02/21 09:31:37;;;;;;;20.50;12.52;;;;;;;;;;5094190;28;20024;-43
2022/02/21 09:34:03;;;;;;;17.80;11.05;;;;;;;;;;5094222;28;20012;-43
2022/02/21 09:36:30;;;;;;;18.33;11.68;;;;;;;;;;5094157;28;20028;-43
2022/02/21 09:38:56;;;;;;;22.10;13.38;;;;;;;;;;5092845;28;20020;-43
2022/02/21 09:41:22;;;;;;;20.42;10.88;;;;;;;;;;5094018;28;20020;-43
2022/02/21 09:43:48;;;;;;;16.98;9.02;;;;;;;;;;5094068;28;20032;-43
2022/02/21 09:46:15;;;;;;;12.68;8.70;;;;;;;;;;5093986;28;20123;-43
2022/02/21 09:48:43;;;;;;;14.65;9.50;;;;;;;;;;5093990;28;20066;-43
2022/02/21 09:51:10;;;;;;;16.77;9.63;;;;;;;;;;5093844;28;20036;-44
2022/02/21 09:53:37;;;;;;;14.13;8.27;;;;;;;;;;5094030;28;20380;-44
2022/02/21 09:56:04;;;;;;;11.45;7.32;;;;;;;;;;5093915;28;20028;-43
2022/02/21 09:58:31;;;;;;;10.15;6.32;;;;;;;;;;5094181;28;20020;-43
2022/02/21 10:00:57;;;;;;;12.32;6.30;;;;;;;;;;5109520;28;20361;-44
2022/02/21 10:03:39;;;;;;;7.78;5.40;;;;;;;;;;5093509;28;20028;-44
2022/02/21 10:06:22;;;;;;;6.13;3.58;;;;;;;;;;5093901;28;20387;-43
2022/02/21 10:08:57;;;;;;;6.50;3.75;;;;;;;;;;5093510;28;20055;-44
2022/02/21 10:11:24;;;;;;;14.23;7.43;;;;;;;;;;5093512;28;20114;-44
2022/02/21 10:14:09;;;;;;;11.13;5.60;;;;;;;;;;5093760;28;20057;-39
2022/02/21 10:16:52;;;;;;;7.38;4.85;;;;;;;;;;5093683;28;20020;-39
2022/02/21 10:19:22;;;;;;;13.05;7.32;;;;;;;;;;5093639;28;20476;-42
2022/02/21 10:21:54;;;;;;;10.00;6.57;;;;;;;;;;5093483;28;20371;-43
2022/02/21 10:24:20;;;;;;;9.90;6.53;;;;;;;;;;5093465;28;20085;-42
2022/02/21 10:26:46;;;;;;;6.88;4.00;;;;;;;;;;5093488;28;20047;-41
2022/02/21 10:29:12;;;;;;;5.07;3.83;;;;;;;;;;5092013;28;20040;-41
2022/02/21 10:31:39;;;;;;;8.00;4.28;;;;;;;;;;5093509;28;20054;-41
2022/02/21 10:34:09;;;;;;;7.35;3.83;;;;;;;;;;5093981;28;20091;-41
2022/02/21 10:36:35;;;;;;;6.70;3.58;;;;;;;;;;5093322;28;20036;-44
2022/02/21 10:39:04;;;;;;;7.13;4.20;;;;;;;;;;5093363;28;20060;-41
2022/02/21 10:41:45;;;;;;;7.85;3.17;;;;;;;;;;5093690;28;20486;-41
2022/02/21 10:44:22;;;;;;;9.32;4.60;;;;;;;;;;5093354;28;20468;-41
2022/02/21 10:47:00;;;;;;;6.93;4.43;;;;;;;;;;5093353;28;20540;-38
2022/02/21 10:49:26;;;;;;;9.95;5.22;;;;;;;;;;5093219;28;20043;-41
2022/02/21 10:51:57;;;;;;;8.00;3.53;;;;;;;;;;5093308;28;20092;-39
2022/02/21 10:54:33;;;;;;;11.65;6.00;;;;;;;;;;5093286;28;20024;-39
2022/02/21 10:57:00;;;;;;;6.30;3.85;;;;;;;;;;5093153;28;20031;-40
2022/02/21 10:59:30;;;;;;;5.18;3.50;;;;;;;;;;5092237;28;20028;-38
2022/02/21 11:01:56;;;;;;;7.25;3.58;;;;;;;;;;5093095;28;20435;-39
2022/02/21 11:04:25;;;;;;;9.50;4.40;;;;;;;;;;5093072;28;20047;-40
2022/02/21 11:06:52;;;;;;;8.07;5.07;;;;;;;;;;5093122;28;20031;-44
2022/02/21 11:09:20;;;;;;;7.40;4.55;;;;;;;;;;5093041;28;20028;-42
2022/02/21 11:11:50;;;;;;;13.20;4.90;;;;;;;;;;5092939;28;20107;-40
2022/02/21 11:14:28;;;;;;;6.18;3.25;;;;;;;;;;5092982;28;20024;-40
2022/02/21 11:16:58;;;;;;;5.47;3.67;;;;;;;;;;5095515;28;20056;-40
2022/02/21 11:19:24;;;;;;;6.22;4.05;;;;;;;;;;5096901;28;20077;-40
2022/02/21 11:21:51;;;;;;;26.88;13.95;;;;;;;;;;5096805;28;20097;-40
2022/02/21 11:24:25;;;;;;;14.25;8.55;;;;;;;;;;5096531;28;20024;-40
2022/02/21 11:27:01;;;;;;;16.40;8.55;;;;;;;;;;5096460;28;20025;-41
2022/02/21 11:29:28;;;;;;;16.38;7.57;;;;;;;;;;5096336;28;20073;-40
2022/02/21 11:31:55;;;;;;;14.95;7.35;;;;;;;;;;5096972;28;20020;-41
2022/02/21 11:34:21;;;;;;;9.90;5.82;;;;;;;;;;5096674;28;20130;-41
2022/02/21 11:36:49;;;;;;;11.43;5.93;;;;;;;;;;5096459;28;20069;-41
2022/02/21 11:39:19;;;;;;;14.13;6.32;;;;;;;;;;5096727;28;20388;-40
2022/02/21 11:41:45;;;;;;;19.83;9.65;;;;;;;;;;5096369;28;20086;-41
2022/02/21 11:44:21;;;;;;;16.52;8.55;;;;;;;;;;5096626;28;20031;-40
2022/02/21 11:46:47;;;;;;;9.48;5.63;;;;;;;;;;5096365;28;20020;-39
2022/02/21 11:49:32;;;;;;;11.10;6.28;;;;;;;;;;5096385;28;20040;-40
2022/02/21 11:52:18;;;;;;;27.77;15.90;;;;;;;;;;5096271;28;20031;-40
2022/02/21 11:54:47;;;;;;;27.55;15.85;;;;;;;;;;5096043;28;20024;-41
2022/02/21 11:57:13;;;;;;;12.13;7.88;;;;;;;;;;5095967;28;20103;-40
2022/02/21 11:59:41;;;;;;;15.77;8.90;;;;;;;;;;5095997;28;20032;-40
2022/02/21 12:02:12;;;;;;;12.00;5.05;;;;;;;;;;5095961;28;20056;-41
2022/02/21 12:04:59;;;;;;;8.67;4.50;;;;;;;;;;5096113;28;20031;-41
2022/02/21 12:07:37;;;;;;;21.52;14.10;;;;;;;;;;5095870;28;20257;-42
2022/02/21 12:10:11;;;;;;;15.57;9.52;;;;;;;;;;5096124;28;20471;-41
2022/02/21 12:12:59;;;;;;;38.70;19.38;;;;;;;;;;5095760;28;20070;-41
2022/02/21 12:15:27;;;;;;;12.85;5.97;;;;;;;;;;5096001;28;20031;-42
2022/02/21 12:18:08;;;;;;;10.43;6.32;;;;;;;;;;5096171;28;20019;-42
2022/02/21 12:20:39;;;;;;;8.65;6.22;;;;;;;;;;5095790;28;20089;-41
2022/02/21 12:23:14;;;;;;;11.40;4.83;;;;;;;;;;5095801;28;20027;-42
2022/02/21 12:26:00;;;;;;;15.45;6.45;;;;;;;;;;5095772;28;20073;-41
2022/02/21 12:28:29;;;;;;;12.15;6.70;;;;;;;;;;5095448;28;20459;-43
2022/02/21 12:30:57;;;;;;;7.63;4.90;;;;;;;;;;5095407;28;20131;-41
2022/02/21 12:33:27;;;;;;;16.90;8.90;;;;;;;;;;5095814;28;20035;-41
2022/02/21 12:35:58;;;;;;;10.32;6.18;;;;;;;;;;5095819;28;20025;-43
2022/02/21 12:38:24;;;;;;;11.48;5.45;;;;;;;;;;5095297;28;20013;-40
2022/02/21 12:41:02;;;;;;;10.52;6.35;;;;;;;;;;5095201;28;20020;-41
2022/02/21 12:43:46;;;;;;;12.60;6.32;;;;;;;;;;5095189;28;20017;-42
2022/02/21 12:46:23;;;;;;;25.85;12.30;;;;;;;;;;5095183;28;20020;-42
2022/02/21 12:48:49;;;;;;;19.55;11.02;;;;;;;;;;5095119;28;20035;-41
2022/02/21 12:51:26;;;;;;;14.75;6.78;;;;;;;;;;5095085;28;20032;-42
2022/02/21 12:53:53;;;;;;;17.55;9.20;;;;;;;;;;5095272;28;20031;-43
2022/02/21 12:56:19;;;;;;;23.88;9.10;;;;;;;;;;5094979;28;20032;-44
2022/02/21 12:58:49;;;;;;;21.65;12.13;;;;;;;;;;5094939;28;20115;-42
2022/02/21 13:01:18;;;;;;;26.95;14.48;;;;;;;;;;5094801;28;20056;-42
2022/02/21 13:03:49;;;;;;;17.13;10.15;;;;;;;;;;5094779;28;20028;-42
2022/02/21 13:06:15;;;;;;;;;;;;;;;;;;5095114;28;20012;-40
2022/02/21 13:08:41;;;;;;;9.30;5.55;;;;;;;;;;5094926;28;19960;-42
2022/02/21 13:11:07;;;;;;;13.43;5.35;;;;;;;;;;5094940;28;20084;-43
2022/02/21 13:13:43;;;;;;;10.88;5.82;;;;;;;;;;5094574;28;20027;-42
2022/02/21 13:16:09;;;;;;;14.70;6.90;;;;;;;;;;5094563;28;20062;-43
2022/02/21 13:19:09;;;;;;;11.00;5.90;;;;;;;;;;5093208;28;20099;-42
2022/02/21 13:21:40;;;;;;;12.23;5.82;;;;;;;;;;5072102;28;20052;-43
2022/02/21 13:24:09;;;;;;;8.60;5.30;;;;;;;;;;5072056;28;20033;-44
2022/02/21 13:26:42;;;;;;;12.32;6.70;;;;;;;;;;5071991;28;20021;-43
2022/02/21 13:29:29;;;;;;;10.80;6.70;;;;;;;;;;5071981;28;20144;-42
2022/02/21 13:31:56;;;;;;;13.70;6.50;;;;;;;;;;5058694;28;20429;-41
2022/02/21 13:34:42;;;;;;;16.63;8.57;;;;;;;;;;5071899;28;20048;-43
2022/02/21 13:37:11;;;;;;;24.65;9.50;;;;;;;;;;5071964;28;20489;-42
2022/02/21 13:39:41;;;;;;;35.17;12.10;;;;;;;;;;5054582;28;20032;-51
2022/02/21 13:42:23;;;;;;;24.92;10.52;;;;;;;;;;5071670;28;20021;-48
2022/02/21 13:44:51;;;;;;;21.50;12.10;;;;;;;;;;5071733;28;20029;-41
2022/02/21 13:47:31;;;;;;;21.20;11.68;;;;;;;;;;5071756;28;20062;-42
2022/02/21 13:49:57;;;;;;;19.67;9.13;;;;;;;;;;5091178;28;20036;-43
2022/02/21 13:52:26;;;;;;;16.08;8.02;;;;;;;;;;5091917;28;20024;-41
2022/02/21 13:54:52;;;;;;;17.17;10.02;;;;;;;;;;5091905;28;20031;-43
2022/02/21 13:57:21;;;;;;;16.00;9.63;;;;;;;;;;5092653;28;20112;-42
2022/02/21 13:59:51;;;;;;;15.90;9.90;;;;;;;;;;5094208;28;20044;-43
2022/02/21 14:02:23;;;;;;;20.67;10.07;;;;;;;;;;5093871;28;20027;-41
2022/02/21 14:04:50;;;;;;;17.27;10.52;;;;;;;;;;5093803;28;20028;-40
2022/02/21 14:07:16;;;;;;;19.60;12.07;;;;;;;;;;5093901;28;20029;-41
2022/02/21 14:09:42;;;;;;;24.00;11.55;;;;;;;;;;5093728;28;20040;-42
2022/02/21 14:12:14;;;;;;;20.02;11.00;;;;;;;;;;5093740;28;20030;-40
2022/02/21 14:14:41;;;;;;;15.43;9.02;;;;;;;;;;5093702;28;20483;-41
2022/02/21 14:17:07;;;;;;;13.48;8.05;;;;;;;;;;5092255;28;20537;-40
2022/02/21 14:19:33;;;;;;;15.15;9.30;;;;;;;;;;5093363;28;20028;-42
2022/02/21 14:22:00;;;;;;;21.27;9.50;;;;;;;;;;5093763;28;20028;-42
2022/02/21 14:24:26;;;;;;;17.40;9.65;;;;;;;;;;5092283;28;20030;-42
2022/02/21 14:26:54;;;;;;;16.40;10.15;;;;;;;;;;5092916;28;20016;-53